createdAt,value
2022-11-15T00:01:02.106Z,11.80
2022-11-15T00:03:30.267Z,11.90
2022-11-15T00:06:03.724Z,11.90
2022-11-15T00:08:32.429Z,11.80
2022-11-15T00:11:02.066Z,11.70
2022-11-15T00:13:30.639Z,11.80
2022-11-15T00:16:01.084Z,11.70
2022-11-15T00:18:29.486Z,11.50
2022-11-15T00:20:57.559Z,11.50
2022-11-15T00:23:25.343Z,11.50
2022-11-15T00:25:58.306Z,11.40
2022-11-15T00:28:26.293Z,11.40
2022-11-15T00:30:54.466Z,11.30
2022-11-15T00:33:23.469Z,11.30
2022-11-15T00:35:51.169Z,11.20
2022-11-15T00:38:18.837Z,11.30
2022-11-15T00:40:46.506Z,11.10
2022-11-15T00:43:14.232Z,11.20
2022-11-15T00:45:41.912Z,11.20
2022-11-15T00:48:09.603Z,11.10
2022-11-15T00:50:38.653Z,11.00
2022-11-15T00:53:06.294Z,10.90
2022-11-15T00:55:34.152Z,11.00
2022-11-15T00:58:01.832Z,10.90
2022-11-15T01:00:30.329Z,11.00
2022-11-15T01:02:58.108Z,11.10
2022-11-15T01:05:25.967Z,11.20
2022-11-15T01:07:55.408Z,11.20
2022-11-15T01:10:23.294Z,11.20
2022-11-15T01:12:51.687Z,11.30
2022-11-15T01:15:19.738Z,11.20
2022-11-15T01:17:47.421Z,11.30
2022-11-15T01:20:15.095Z,11.40
2022-11-15T01:22:42.750Z,11.50
2022-11-15T01:25:11.805Z,11.50
2022-11-15T01:27:39.571Z,11.40
2022-11-15T01:30:09.220Z,11.50
2022-11-15T01:32:36.962Z,11.40
2022-11-15T01:35:05.248Z,11.60
2022-11-15T01:37:32.994Z,11.60
2022-11-15T01:40:00.681Z,11.60
2022-11-15T01:42:29.701Z,11.70
2022-11-15T01:44:57.496Z,11.70
2022-11-15T01:47:28.532Z,11.70
2022-11-15T01:49:59.554Z,11.70
2022-11-15T01:52:29.483Z,11.70
2022-11-15T01:55:04.017Z,11.60
2022-11-15T01:57:33.203Z,11.60
2022-11-15T02:00:04.061Z,11.50
2022-11-15T02:02:32.000Z,11.50
2022-11-15T02:04:59.853Z,11.40
2022-11-15T02:07:28.159Z,11.50
2022-11-15T02:09:56.760Z,11.40
2022-11-15T02:12:25.013Z,11.50
2022-11-15T02:14:56.472Z,11.50
2022-11-15T02:17:41.490Z,11.50
2022-11-15T02:20:35.728Z,11.50
2022-11-15T02:23:23.140Z,11.60
2022-11-15T02:26:02.204Z,11.60
2022-11-15T02:28:47.635Z,11.60
2022-11-15T02:31:26.528Z,11.70
2022-11-15T02:34:01.361Z,11.60
2022-11-15T02:36:38.706Z,11.60
2022-11-15T02:39:12.849Z,11.50
2022-11-15T02:41:47.874Z,11.50
2022-11-15T02:44:19.293Z,11.30
2022-11-15T02:47:11.011Z,11.40
2022-11-15T02:49:41.017Z,11.30
2022-11-15T02:52:08.752Z,11.30
2022-11-15T02:54:37.070Z,11.40
2022-11-15T02:57:08.940Z,11.40
2022-11-15T02:59:57.031Z,11.40
2022-11-15T03:02:38.584Z,11.30
2022-11-15T03:05:19.744Z,11.30
2022-11-15T03:08:01.815Z,11.30
2022-11-15T03:10:37.339Z,11.40
2022-11-15T03:13:14.164Z,11.40
2022-11-15T03:15:48.768Z,11.40
2022-11-15T03:18:23.618Z,11.40
2022-11-15T03:20:52.373Z,11.50
2022-11-15T03:23:20.169Z,11.50
2022-11-15T03:25:52.428Z,11.50
2022-11-15T03:28:25.556Z,11.50
2022-11-15T03:30:56.436Z,11.60
2022-11-15T03:33:25.907Z,11.50
2022-11-15T03:35:55.898Z,11.50
2022-11-15T03:38:27.022Z,11.40
2022-11-15T03:41:00.261Z,11.40
2022-11-15T03:43:36.015Z,11.30
2022-11-15T03:46:08.185Z,11.40
2022-11-15T03:48:42.236Z,11.40
2022-11-15T03:51:10.419Z,11.40
2022-11-15T03:53:38.105Z,11.50
2022-11-15T03:56:06.156Z,11.50
2022-11-15T03:58:33.853Z,11.50
2022-11-15T04:01:01.554Z,11.50
2022-11-15T04:03:29.530Z,11.50
2022-11-15T04:05:58.883Z,11.60
2022-11-15T04:08:26.591Z,11.70
2022-11-15T04:10:54.265Z,11.80
2022-11-15T04:13:21.970Z,11.80
2022-11-15T04:15:49.655Z,11.80
2022-11-15T04:18:17.362Z,12.00
2022-11-15T04:21:02.617Z,12.00
2022-11-15T04:23:45.544Z,12.10
2022-11-15T04:26:16.531Z,12.20
2022-11-15T04:28:58.195Z,12.40
2022-11-15T04:31:25.926Z,12.40
2022-11-15T04:33:53.718Z,12.40
2022-11-15T04:36:39.440Z,12.40
2022-11-15T04:39:08.700Z,12.50
2022-11-15T04:41:36.440Z,12.60
2022-11-15T04:44:04.287Z,12.30
2022-11-15T04:46:31.971Z,12.50
2022-11-15T04:48:59.690Z,12.50
2022-11-15T04:51:27.495Z,12.70
2022-11-15T04:53:55.246Z,12.70
2022-11-15T04:56:24.239Z,12.90
2022-11-15T04:58:52.046Z,13.00
2022-11-15T05:01:19.805Z,13.00
2022-11-15T05:04:05.305Z,13.00
2022-11-15T05:06:33.361Z,13.10
2022-11-15T05:09:01.222Z,13.00
2022-11-15T05:11:30.233Z,13.10
2022-11-15T05:13:58.039Z,13.20
2022-11-15T05:16:25.696Z,13.30
2022-11-15T05:18:53.801Z,13.40
2022-11-15T05:21:21.980Z,13.30
2022-11-15T05:23:49.660Z,13.30
2022-11-15T05:26:18.931Z,13.30
2022-11-15T05:28:48.029Z,13.10
2022-11-15T05:31:17.325Z,13.20
2022-11-15T05:33:46.124Z,13.00
2022-11-15T05:36:18.625Z,12.90
2022-11-15T05:38:46.828Z,12.90
2022-11-15T05:41:15.284Z,12.90
2022-11-15T05:43:44.043Z,12.90
2022-11-15T05:46:15.177Z,13.10
2022-11-15T05:48:44.436Z,13.10
2022-11-15T05:51:14.276Z,13.10
2022-11-15T05:53:42.266Z,13.30
2022-11-15T05:56:11.494Z,13.30
2022-11-15T05:58:39.969Z,13.40
2022-11-15T06:01:07.813Z,13.40
2022-11-15T06:03:36.905Z,13.40
2022-11-15T06:06:04.789Z,13.50
2022-11-15T06:08:32.475Z,13.40
2022-11-15T06:11:05.581Z,13.40
2022-11-15T06:13:34.008Z,13.10
2022-11-15T06:16:02.344Z,13.10
2022-11-15T06:18:30.349Z,13.20
2022-11-15T06:21:02.154Z,13.20
2022-11-15T06:23:30.701Z,13.10
2022-11-15T06:26:00.379Z,13.30
2022-11-15T06:28:30.506Z,13.10
2022-11-15T06:30:58.353Z,13.10
2022-11-15T06:33:26.059Z,13.20
2022-11-15T06:35:53.699Z,13.10
2022-11-15T06:38:22.726Z,13.20
2022-11-15T06:40:50.413Z,13.30
2022-11-15T06:43:18.060Z,13.20
2022-11-15T06:45:45.738Z,13.20
2022-11-15T06:48:13.428Z,13.10
2022-11-15T06:50:41.205Z,13.10
2022-11-15T06:53:08.871Z,12.70
2022-11-15T06:55:37.970Z,12.90
2022-11-15T06:58:05.617Z,12.80
2022-11-15T07:00:33.261Z,13.00
2022-11-15T07:03:01.785Z,12.90
2022-11-15T07:05:29.545Z,13.00
2022-11-15T07:07:59.465Z,13.00
2022-11-15T07:10:28.564Z,12.90
2022-11-15T07:12:58.264Z,13.10
2022-11-15T07:15:27.472Z,13.10
2022-11-15T07:17:55.201Z,12.90
2022-11-15T07:20:22.877Z,13.10
2022-11-15T07:22:50.520Z,13.20
2022-11-15T07:25:18.441Z,12.90
2022-11-15T07:27:46.222Z,13.00
2022-11-15T07:30:15.888Z,13.10
2022-11-15T07:32:43.544Z,12.90
2022-11-15T07:35:11.235Z,13.20
2022-11-15T07:37:38.967Z,13.00
2022-11-15T07:40:07.832Z,13.20
2022-11-15T07:42:52.776Z,13.40
2022-11-15T07:45:21.974Z,13.30
2022-11-15T07:47:49.970Z,13.50
2022-11-15T07:50:18.456Z,13.50
2022-11-15T07:52:47.335Z,13.60
2022-11-15T07:55:15.498Z,13.70
2022-11-15T07:57:43.158Z,13.70
2022-11-15T08:00:12.231Z,13.50
2022-11-15T08:02:41.554Z,13.40
2022-11-15T08:05:09.549Z,13.60
2022-11-15T08:07:39.753Z,13.70
2022-11-15T08:10:08.885Z,13.70
2022-11-15T08:12:36.852Z,13.70
2022-11-15T08:15:04.913Z,13.70
2022-11-15T08:17:34.852Z,13.80
2022-11-15T08:20:04.325Z,13.80
2022-11-15T08:22:31.991Z,13.70
2022-11-15T08:24:59.647Z,13.90
2022-11-15T08:27:27.347Z,14.00
2022-11-15T08:29:59.322Z,14.00
2022-11-15T08:32:27.343Z,13.90
2022-11-15T08:34:54.995Z,14.10
2022-11-15T08:37:24.021Z,14.20
2022-11-15T08:39:51.709Z,14.20
2022-11-15T08:42:20.216Z,13.90
2022-11-15T08:44:48.051Z,14.20
2022-11-15T08:47:16.009Z,14.10
2022-11-15T08:49:43.684Z,14.10
2022-11-15T08:52:11.399Z,14.10
2022-11-15T08:54:40.382Z,14.60
2022-11-15T08:57:08.804Z,14.60
2022-11-15T08:59:36.523Z,14.30
2022-11-15T09:02:04.644Z,14.70
2022-11-15T09:04:32.814Z,14.90
2022-11-15T09:07:00.533Z,14.90
2022-11-15T09:09:28.208Z,15.10
2022-11-15T09:12:01.405Z,15.00
2022-11-15T09:14:31.005Z,15.00
2022-11-15T09:16:59.209Z,15.30
2022-11-15T09:19:26.951Z,15.50
2022-11-15T09:21:56.486Z,15.50
2022-11-15T09:24:28.450Z,15.60
2022-11-15T09:26:57.528Z,15.60
2022-11-15T09:29:25.263Z,15.70
2022-11-15T09:31:54.278Z,15.80
2022-11-15T09:34:22.113Z,16.00
2022-11-15T09:36:49.796Z,16.20
2022-11-15T09:39:17.461Z,16.30
2022-11-15T09:42:07.081Z,16.30
2022-11-15T09:44:45.751Z,16.10
2022-11-15T09:47:35.756Z,16.00
2022-11-15T09:50:11.399Z,16.40
2022-11-15T09:52:43.518Z,16.60
2022-11-15T09:55:14.611Z,16.70
2022-11-15T09:57:53.141Z,16.80
2022-11-15T10:00:45.213Z,17.00
2022-11-15T10:03:14.238Z,17.00
2022-11-15T10:05:43.964Z,16.70
2022-11-15T10:08:33.670Z,16.80
2022-11-15T10:13:54.954Z,16.80
2022-11-15T10:16:55.394Z,16.90
2022-11-15T10:19:28.278Z,17.10
2022-11-15T10:22:05.761Z,16.90
2022-11-15T10:24:39.192Z,17.30
2022-11-15T10:27:11.480Z,17.30
2022-11-15T10:29:45.278Z,17.50
2022-11-15T10:32:13.499Z,17.40
2022-11-15T10:34:41.250Z,17.50
2022-11-15T10:37:08.952Z,17.40
2022-11-15T10:39:36.831Z,17.40
2022-11-15T10:42:18.255Z,17.20
2022-11-15T10:44:47.660Z,17.20
2022-11-15T10:47:28.775Z,17.40
2022-11-15T10:49:59.488Z,17.50
2022-11-15T10:52:27.530Z,17.50
2022-11-15T10:54:58.978Z,17.30
2022-11-15T10:57:30.513Z,17.40
2022-11-15T11:00:02.351Z,17.50
2022-11-15T11:02:33.621Z,17.20
2022-11-15T11:05:02.581Z,17.30
2022-11-15T11:07:31.930Z,17.50
2022-11-15T11:10:01.957Z,17.60
2022-11-15T11:12:32.376Z,17.90
2022-11-15T11:15:03.526Z,17.60
2022-11-15T11:17:40.989Z,17.80
2022-11-15T11:20:16.837Z,17.70
2022-11-15T11:22:58.755Z,17.90
2022-11-15T11:25:35.772Z,17.90
2022-11-15T11:28:27.675Z,17.50
2022-11-15T11:31:08.438Z,17.70
2022-11-15T11:33:41.771Z,17.50
2022-11-15T11:36:23.465Z,17.90
2022-11-15T11:39:20.275Z,18.20
2022-11-15T11:41:55.391Z,18.00
2022-11-15T11:44:35.041Z,17.90
2022-11-15T11:47:11.098Z,17.80
2022-11-15T11:49:45.739Z,17.60
2022-11-15T11:52:17.903Z,17.70
2022-11-15T11:55:00.522Z,17.90
2022-11-15T11:57:36.381Z,18.00
2022-11-15T12:00:14.273Z,17.70
2022-11-15T12:02:46.938Z,17.90
2022-11-15T12:05:20.530Z,18.10
2022-11-15T12:07:51.665Z,18.00
2022-11-15T12:10:24.715Z,18.30
2022-11-15T12:13:00.787Z,18.50
2022-11-15T12:15:32.389Z,18.30
2022-11-15T12:18:02.933Z,18.30
2022-11-15T12:20:36.877Z,18.00
2022-11-15T12:23:10.250Z,18.00
2022-11-15T12:25:45.583Z,18.10
2022-11-15T12:28:18.354Z,18.20
2022-11-15T12:30:51.475Z,18.10
2022-11-15T12:33:36.511Z,18.20
2022-11-15T12:36:06.615Z,18.30
2022-11-15T12:38:57.249Z,18.40
2022-11-15T12:41:26.845Z,18.50
2022-11-15T12:43:55.136Z,18.50
2022-11-15T12:46:46.593Z,18.40
2022-11-15T12:49:49.412Z,18.50
2022-11-15T12:52:18.118Z,18.30
2022-11-15T12:54:57.934Z,18.10
2022-11-15T12:57:43.015Z,18.10
2022-11-15T13:00:40.755Z,18.10
2022-11-15T13:03:30.343Z,18.10
2022-11-15T13:06:49.647Z,18.20
2022-11-15T13:09:59.258Z,18.20
2022-11-15T13:12:56.030Z,17.70
2022-11-15T13:15:43.111Z,18.00
2022-11-15T13:18:33.981Z,18.20
2022-11-15T13:21:23.336Z,18.20
2022-11-15T13:23:56.368Z,18.40
2022-11-15T13:26:24.643Z,18.10
2022-11-15T13:28:55.730Z,18.10
2022-11-15T13:31:43.213Z,18.20
2022-11-15T13:37:31.874Z,18.30
2022-11-15T13:40:22.894Z,18.20
2022-11-15T13:42:50.625Z,18.30
2022-11-15T13:45:20.317Z,18.30
2022-11-15T13:47:54.257Z,18.30
2022-11-15T13:50:24.327Z,18.30
2022-11-15T13:52:52.568Z,18.50
2022-11-15T13:55:23.910Z,18.40
2022-11-15T13:57:55.773Z,18.30
2022-11-15T14:00:34.038Z,18.40
2022-11-15T14:03:09.423Z,18.40
2022-11-15T14:05:37.370Z,18.30
2022-11-15T14:08:14.608Z,18.30
2022-11-15T14:10:43.842Z,18.20
2022-11-15T14:13:29.624Z,18.30
2022-11-15T14:16:15.209Z,18.30
2022-11-15T14:18:46.877Z,18.40
2022-11-15T14:21:15.300Z,18.20
2022-11-15T14:23:43.665Z,18.50
2022-11-15T14:26:29.794Z,18.50
2022-11-15T14:28:57.429Z,18.50
2022-11-15T14:31:25.192Z,18.40
2022-11-15T14:33:52.940Z,18.40
2022-11-15T14:36:22.263Z,18.40
2022-11-15T14:38:50.043Z,18.20
2022-11-15T14:41:24.006Z,17.90
2022-11-15T14:43:52.487Z,18.10
2022-11-15T14:46:20.484Z,18.20
2022-11-15T14:48:48.154Z,18.10
2022-11-15T14:51:18.542Z,18.10
2022-11-15T14:53:47.827Z,18.10
2022-11-15T14:56:17.181Z,18.00
2022-11-15T14:58:47.171Z,17.20
2022-11-15T15:01:23.705Z,17.70
2022-11-15T15:03:55.043Z,17.80
2022-11-15T15:06:24.264Z,17.60
2022-11-15T15:08:52.548Z,17.80
2022-11-15T15:11:23.452Z,17.90
2022-11-15T15:13:53.249Z,17.90
2022-11-15T15:16:21.062Z,17.90
2022-11-15T15:18:48.736Z,17.80
2022-11-15T15:21:22.817Z,17.80
2022-11-15T15:23:50.604Z,17.70
2022-11-15T15:26:18.483Z,17.70
2022-11-15T15:28:46.238Z,17.70
2022-11-15T15:31:15.275Z,17.90
2022-11-15T15:33:42.992Z,17.80
2022-11-15T15:36:12.827Z,17.80
2022-11-15T15:38:41.864Z,17.70
2022-11-15T15:41:12.106Z,17.70
2022-11-15T15:43:40.019Z,17.60
2022-11-15T15:46:12.024Z,17.60
2022-11-15T15:48:41.630Z,17.50
2022-11-15T15:51:18.491Z,17.40
2022-11-15T15:53:48.013Z,17.40
2022-11-15T15:56:15.796Z,17.30
2022-11-15T15:58:43.545Z,17.30
2022-11-15T16:01:11.346Z,17.30
2022-11-15T16:03:39.084Z,17.30
2022-11-15T16:06:34.432Z,17.30
2022-11-15T16:09:14.723Z,17.30
2022-11-15T16:11:43.736Z,17.20
2022-11-15T16:14:11.555Z,17.10
2022-11-15T16:16:39.270Z,17.00
2022-11-15T16:19:07.215Z,16.80
2022-11-15T16:21:36.270Z,16.90
2022-11-15T16:24:04.503Z,16.80
2022-11-15T16:26:32.368Z,16.90
2022-11-15T16:29:00.093Z,17.00
2022-11-15T16:31:27.783Z,16.90
2022-11-15T16:33:55.449Z,16.90
2022-11-15T16:36:29.862Z,16.80
2022-11-15T16:39:00.642Z,16.90
2022-11-15T16:41:28.371Z,16.90
2022-11-15T16:43:56.083Z,16.80
2022-11-15T16:46:25.492Z,16.80
2022-11-15T16:48:54.826Z,16.70
2022-11-15T16:51:23.373Z,16.60
2022-11-15T16:53:51.593Z,16.60
2022-11-15T16:56:24.537Z,16.60
2022-11-15T16:58:52.991Z,16.60
2022-11-15T17:01:24.507Z,16.60
2022-11-15T17:03:52.571Z,16.70
2022-11-15T17:06:20.409Z,16.70
2022-11-15T17:08:48.684Z,16.70
2022-11-15T17:11:19.605Z,16.50
2022-11-15T17:13:49.533Z,16.60
2022-11-15T17:16:19.025Z,16.50
2022-11-15T17:18:46.810Z,16.40
2022-11-15T17:21:16.325Z,16.50
2022-11-15T17:23:44.416Z,16.50
2022-11-15T17:26:32.225Z,16.50
2022-11-15T17:29:04.400Z,16.60
2022-11-15T17:31:33.812Z,16.60
2022-11-15T17:34:02.453Z,16.80
2022-11-15T17:36:30.631Z,16.70
2022-11-15T17:38:59.981Z,16.70
2022-11-15T17:41:28.748Z,16.60
2022-11-15T17:43:58.927Z,16.70
2022-11-15T17:46:29.437Z,16.50
2022-11-15T17:48:57.806Z,16.50
2022-11-15T17:51:25.683Z,16.30
2022-11-15T17:53:53.645Z,16.30
2022-11-15T17:56:23.163Z,16.30
2022-11-15T17:58:51.999Z,16.20
2022-11-15T18:01:22.007Z,16.20
2022-11-15T18:03:51.765Z,16.20
2022-11-15T18:06:20.717Z,16.20
2022-11-15T18:08:49.834Z,16.00
2022-11-15T18:11:20.086Z,16.00
2022-11-15T18:13:52.245Z,16.00
2022-11-15T18:16:22.768Z,16.00
2022-11-15T18:18:51.936Z,16.00
2022-11-15T18:21:21.789Z,15.90
2022-11-15T18:23:50.482Z,15.80
2022-11-15T18:26:23.048Z,15.90
2022-11-15T18:28:54.529Z,15.80
2022-11-15T18:31:23.682Z,15.90
2022-11-15T18:33:53.248Z,16.00
2022-11-15T18:36:23.533Z,15.80
2022-11-15T18:38:55.552Z,15.70
2022-11-15T18:41:25.341Z,15.90
2022-11-15T18:43:53.111Z,15.90
2022-11-15T18:46:23.086Z,15.90
2022-11-15T18:48:53.958Z,15.70
2022-11-15T18:51:22.886Z,15.70
2022-11-15T18:53:54.079Z,15.70
2022-11-15T18:56:22.919Z,15.70
2022-11-15T18:58:53.156Z,15.80
2022-11-15T19:01:22.786Z,15.90
2022-11-15T19:03:53.333Z,15.90
2022-11-15T19:06:23.325Z,16.00
2022-11-15T19:08:54.533Z,16.00
2022-11-15T19:11:24.182Z,16.10
2022-11-15T19:13:54.404Z,16.10
2022-11-15T19:16:22.342Z,16.00
2022-11-15T19:18:55.835Z,16.10
2022-11-15T19:21:24.324Z,16.10
2022-11-15T19:23:52.960Z,16.20
2022-11-15T19:26:22.028Z,16.30
2022-11-15T19:28:52.594Z,16.30
2022-11-15T19:31:21.596Z,16.30
2022-11-15T19:33:49.317Z,16.30
2022-11-15T19:36:20.176Z,16.30
2022-11-15T19:38:48.223Z,16.10
2022-11-15T19:41:18.023Z,16.00
2022-11-15T19:43:47.840Z,16.10
2022-11-15T19:46:16.634Z,16.10
2022-11-15T19:48:44.768Z,16.10
2022-11-15T19:51:14.261Z,16.10
2022-11-15T19:53:43.787Z,16.00
2022-11-15T19:56:14.081Z,16.00
2022-11-15T19:58:42.140Z,16.10
2022-11-15T20:01:14.536Z,16.00
2022-11-15T20:03:42.600Z,15.90
2022-11-15T20:06:12.527Z,16.00
2022-11-15T20:08:40.511Z,16.00
2022-11-15T20:11:09.808Z,15.80
2022-11-15T20:13:37.562Z,15.80
2022-11-15T20:16:05.937Z,15.70
2022-11-15T20:18:34.585Z,15.60
2022-11-15T20:21:04.538Z,15.60
2022-11-15T20:23:32.213Z,15.60
2022-11-15T20:25:59.968Z,15.60
2022-11-15T20:28:30.240Z,15.60
2022-11-15T20:31:00.851Z,15.50
2022-11-15T20:33:28.982Z,15.50
2022-11-15T20:35:56.764Z,15.40
2022-11-15T20:38:24.825Z,15.30
2022-11-15T20:40:57.441Z,15.40
2022-11-15T20:43:26.872Z,15.30
2022-11-15T20:45:56.012Z,15.30
2022-11-15T20:48:23.725Z,15.30
2022-11-15T20:50:51.397Z,15.40
2022-11-15T20:53:20.823Z,15.40
2022-11-15T20:55:50.959Z,15.50
2022-11-15T20:58:19.380Z,15.50
2022-11-15T21:00:47.515Z,15.50
2022-11-15T21:03:16.678Z,15.60
2022-11-15T21:05:45.441Z,15.60
2022-11-15T21:08:13.646Z,15.60
2022-11-15T21:10:59.807Z,15.70
2022-11-15T21:13:27.740Z,15.90
2022-11-15T21:15:56.800Z,15.90
2022-11-15T21:18:25.885Z,15.80
2022-11-15T21:20:53.841Z,16.00
2022-11-15T21:23:21.557Z,16.10
2022-11-15T21:25:50.261Z,16.00
2022-11-15T21:28:17.928Z,15.90
2022-11-15T21:30:53.904Z,16.00
2022-11-15T21:33:23.820Z,15.80
2022-11-15T21:35:53.506Z,15.70
2022-11-15T21:38:21.157Z,15.80
2022-11-15T21:40:48.838Z,15.90
2022-11-15T21:43:16.529Z,15.80
2022-11-15T21:45:44.247Z,15.90
2022-11-15T21:48:11.941Z,15.80
2022-11-15T21:50:39.577Z,15.80
2022-11-15T21:53:08.656Z,15.70
2022-11-15T21:55:40.179Z,15.60
2022-11-15T21:58:07.836Z,15.70
2022-11-15T22:00:49.469Z,15.70
2022-11-15T22:03:17.151Z,15.80
2022-11-15T22:05:45.676Z,15.80
2022-11-15T22:08:14.683Z,15.70
2022-11-15T22:10:42.369Z,15.80
2022-11-15T22:13:10.088Z,15.70
2022-11-15T22:15:37.818Z,15.70
2022-11-15T22:18:05.771Z,15.80
2022-11-15T22:20:49.288Z,15.80
2022-11-15T22:23:18.847Z,15.90
2022-11-15T22:25:46.569Z,15.70
2022-11-15T22:28:14.371Z,15.70
2022-11-15T22:30:42.660Z,15.70
2022-11-15T22:33:10.429Z,15.60
2022-11-15T22:35:39.457Z,15.70
2022-11-15T22:38:07.243Z,15.80
2022-11-15T22:40:36.683Z,15.90
2022-11-15T22:43:05.365Z,16.00
2022-11-15T22:45:33.506Z,16.10
2022-11-15T22:48:01.301Z,16.10
2022-11-15T22:50:29.064Z,16.00
2022-11-15T22:52:56.808Z,15.90
2022-11-15T22:55:24.597Z,15.90
2022-11-15T22:57:53.698Z,15.90
2022-11-15T23:00:21.809Z,15.80
2022-11-15T23:02:53.220Z,15.70
2022-11-15T23:05:22.047Z,15.60
2022-11-15T23:07:49.804Z,15.40
2022-11-15T23:10:47.431Z,15.20
2022-11-15T23:13:19.058Z,15.00
2022-11-15T23:16:06.439Z,14.90
2022-11-15T23:18:35.583Z,14.90
2022-11-15T23:21:09.910Z,14.70
2022-11-15T23:23:36.698Z,14.70
2022-11-15T23:26:04.830Z,14.80
2022-11-15T23:28:35.441Z,14.80
2022-11-15T23:31:21.989Z,14.90
2022-11-15T23:33:58.763Z,14.80
2022-11-15T23:36:26.904Z,14.80
2022-11-15T23:38:54.900Z,14.80
2022-11-15T23:41:24.431Z,14.80
2022-11-15T23:43:53.769Z,14.80
2022-11-15T23:46:21.947Z,14.80
2022-11-15T23:48:49.714Z,14.80
2022-11-15T23:51:17.437Z,14.80
2022-11-15T23:53:45.374Z,14.80
2022-11-15T23:56:14.760Z,14.90
2022-11-15T23:58:43.817Z,14.90
